Time;durP1;ratioP1;P1;durP2;ratioP2;P2;SDS_P1;SDS_P2;PMS_P1;PMS_P2;Temp;Humidity;BMP_temperature;BMP_pressure;BME280_temperature;BME280_humidity;BME280_pressure;Samples;Min_cycle;Max_cycle;Signal;HPM_P1;HPM_P2
2020/12/23 00:02:58;;;;;;;1.27;1.15;;;14.50;90.90;;;;;;6249342;28;20042;-77
2020/12/23 00:05:59;;;;;;;2.75;1.52;;;14.50;90.90;;;;;;6248604;28;20600;-77
2020/12/23 00:09:02;;;;;;;1.15;0.80;;;14.50;90.70;;;;;;6249511;28;20053;-77
2020/12/23 00:12:03;;;;;;;0.75;0.60;;;14.50;90.70;;;;;;6249698;28;20124;-77
2020/12/23 00:15:07;;;;;;;1.52;0.77;;;14.50;90.50;;;;;;6249376;28;20045;-77
2020/12/23 00:18:08;;;;;;;1.55;0.80;;;14.50;90.30;;;;;;6248466;28;20049;-77
2020/12/23 00:21:09;;;;;;;1.17;0.88;;;14.50;90.40;;;;;;6248687;28;20046;-77
2020/12/23 00:24:12;;;;;;;1.05;0.82;;;14.50;90.20;;;;;;6249259;28;20068;-77
2020/12/23 00:27:13;;;;;;;1.17;0.80;;;14.50;90.40;;;;;;6249176;28;20068;-77
2020/12/23 00:30:14;;;;;;;1.58;1.20;;;14.40;90.30;;;;;;6248597;28;20136;-77
2020/12/23 00:33:16;;;;;;;1.42;1.05;;;14.40;90.50;;;;;;6248263;28;20133;-78
2020/12/23 00:36:17;;;;;;;0.95;0.70;;;14.30;90.60;;;;;;6249378;28;20081;-77
2020/12/23 00:39:19;;;;;;;0.60;0.60;;;14.30;90.60;;;;;;6248135;28;20511;-77
2020/12/23 00:42:21;;;;;;;3.28;1.17;;;14.40;90.50;;;;;;6248894;28;20053;-77
2020/12/23 00:45:23;;;;;;;2.75;1.00;;;14.40;90.50;;;;;;6248789;28;20046;-77
2020/12/23 00:48:24;;;;;;;1.13;1.02;;;14.40;90.50;;;;;;6248378;28;20064;-77
2020/12/23 00:51:25;;;;;;;1.75;0.88;;;14.40;90.50;;;;;;6250646;28;20506;-77
2020/12/23 00:54:27;;;;;;;1.10;0.70;;;14.40;90.40;;;;;;6255255;28;20045;-78
2020/12/23 00:57:29;;;;;;;1.52;1.05;;;14.40;90.50;;;;;;6255386;28;20045;-77
2020/12/23 01:00:30;;;;;;;1.60;0.90;;;14.40;90.50;;;;;;6255085;28;20514;-77
2020/12/23 01:03:31;;;;;;;0.63;0.60;;;14.40;90.50;;;;;;6255619;28;20049;-77
2020/12/23 01:06:33;;;;;;;0.63;0.63;;;14.40;90.50;;;;;;6253637;28;20045;-77
2020/12/23 01:09:35;;;;;;;1.70;1.30;;;14.30;90.40;;;;;;6252856;28;20052;-77
2020/12/23 01:12:36;;;;;;;0.88;0.70;;;14.30;90.40;;;;;;6254990;28;20119;-77
2020/12/23 01:15:37;;;;;;;0.70;0.68;;;14.30;90.50;;;;;;6252611;28;20129;-78
2020/12/23 01:18:39;;;;;;;1.52;0.82;;;14.30;90.40;;;;;;6252106;28;20065;-75
2020/12/23 01:21:42;;;;;;;2.63;0.80;;;14.30;90.40;;;;;;6249200;28;20465;-78
2020/12/23 01:24:45;;;;;;;1.70;0.80;;;14.30;90.30;;;;;;6252982;28;20144;-77
2020/12/23 01:27:46;;;;;;;1.30;0.82;;;14.30;90.30;;;;;;6254213;28;20056;-75
2020/12/23 01:30:48;;;;;;;3.10;0.80;;;14.40;90.40;;;;;;6254561;28;20065;-78
2020/12/23 01:33:49;;;;;;;3.22;0.88;;;14.30;90.50;;;;;;6254700;28;20211;-77
2020/12/23 01:36:50;;;;;;;1.88;0.80;;;14.30;90.60;;;;;;6255393;28;20054;-78
2020/12/23 01:39:53;;;;;;;0.90;0.80;;;14.30;90.60;;;;;;6254484;28;20077;-78
2020/12/23 01:42:54;;;;;;;3.33;1.35;;;14.30;90.70;;;;;;6253542;28;20494;-77
2020/12/23 01:45:56;;;;;;;4.63;1.42;;;14.20;90.90;;;;;;6252188;28;20113;-77
2020/12/23 01:48:59;;;;;;;1.08;0.80;;;14.20;91.30;;;;;;6248919;28;20049;-77
2020/12/23 01:52:01;;;;;;;0.80;0.80;;;14.10;91.60;;;;;;6246944;28;20060;-77
2020/12/23 01:55:04;;;;;;;1.17;1.05;;;14.00;92.10;;;;;;6246781;28;20120;-77
2020/12/23 01:58:06;;;;;;;0.80;0.70;;;14.00;92.70;;;;;;6244618;28;20128;-77
2020/12/23 02:01:07;;;;;;;1.75;1.13;;;13.90;93.40;;;;;;6246730;28;21166;-77
2020/12/23 02:04:08;;;;;;;0.63;0.63;;;13.80;93.70;;;;;;6246728;28;20144;-77
2020/12/23 02:07:10;;;;;;;1.27;1.17;;;13.70;94.10;;;;;;6245834;28;20136;-77
2020/12/23 02:10:12;;;;;;;1.00;0.90;;;13.60;94.30;;;;;;6246379;28;20041;-78
2020/12/23 02:13:13;;;;;;;2.35;0.90;;;13.60;94.50;;;;;;6246136;28;20061;-75
2020/12/23 02:16:15;;;;;;;1.10;0.95;;;13.50;94.60;;;;;;6247261;28;20140;-78
2020/12/23 02:19:16;;;;;;;1.35;0.82;;;13.50;95.00;;;;;;6247880;28;20079;-78
2020/12/23 02:22:21;;;;;;;0.88;0.75;;;13.50;95.30;;;;;;6247148;28;20446;-78
2020/12/23 02:25:24;;;;;;;1.02;0.85;;;13.40;95.60;;;;;;6246810;28;20046;-78
2020/12/23 02:28:25;;;;;;;1.20;0.90;;;13.40;95.90;;;;;;6246715;28;20075;-78
2020/12/23 02:31:27;;;;;;;2.47;0.80;;;13.40;96.10;;;;;;6249349;28;20060;-79
2020/12/23 02:34:28;;;;;;;0.80;0.68;;;13.40;96.20;;;;;;6248660;28;20052;-78
2020/12/23 02:37:29;;;;;;;1.42;0.90;;;13.40;96.30;;;;;;6246934;28;20042;-77
2020/12/23 02:40:31;;;;;;;1.85;0.93;;;13.40;96.40;;;;;;6247984;28;20531;-78
2020/12/23 02:43:32;;;;;;;1.48;1.27;;;13.40;96.40;;;;;;6248415;28;20064;-78
2020/12/23 02:46:34;;;;;;;0.95;0.75;;;13.40;96.50;;;;;;6245726;28;20056;-78
2020/12/23 02:49:36;;;;;;;2.65;1.58;;;13.40;96.40;;;;;;6246401;28;20104;-78
2020/12/23 02:52:37;;;;;;;1.23;0.82;;;13.40;96.40;;;;;;6247163;28;20060;-78
2020/12/23 02:55:39;;;;;;;1.30;1.20;;;13.40;96.40;;;;;;6249210;28;20061;-77
2020/12/23 02:58:40;;;;;;;1.80;1.00;;;13.40;96.40;;;;;;6247187;28;20099;-78
2020/12/23 03:01:42;;;;;;;1.60;1.08;;;13.30;96.40;;;;;;6247883;28;20069;-78
2020/12/23 03:04:43;;;;;;;2.35;1.60;;;13.30;96.50;;;;;;6248132;28;20049;-78
2020/12/23 03:07:45;;;;;;;2.00;1.80;;;13.30;96.80;;;;;;6248697;28;20050;-77
2020/12/23 03:10:47;;;;;;;1.73;1.42;;;13.20;96.90;;;;;;6248490;28;20088;-78
2020/12/23 03:13:48;;;;;;;2.38;2.17;;;13.20;97.20;;;;;;6250899;28;20175;-78
2020/12/23 03:16:49;;;;;;;2.42;1.50;;;13.10;97.40;;;;;;6250606;28;20053;-78
2020/12/23 03:19:51;;;;;;;2.05;1.60;;;13.00;97.50;;;;;;6253643;28;20083;-78
2020/12/23 03:22:52;;;;;;;3.05;1.75;;;13.00;97.80;;;;;;6254102;28;20045;-78
2020/12/23 03:25:54;;;;;;;2.50;1.90;;;13.00;98.10;;;;;;6254051;28;20108;-78
2020/12/23 03:28:55;;;;;;;4.03;1.80;;;12.90;98.50;;;;;;6253542;28;20052;-78
2020/12/23 03:31:57;;;;;;;3.50;1.65;;;12.90;98.70;;;;;;6250145;28;20514;-78
2020/12/23 03:34:58;;;;;;;3.58;2.35;;;12.90;98.90;;;;;;6249596;28;20050;-78
2020/12/23 03:37:59;;;;;;;2.33;2.00;;;12.80;98.90;;;;;;6248061;28;20069;-78
2020/12/23 03:41:01;;;;;;;2.35;2.00;;;12.80;99.00;;;;;;6250843;28;20510;-78
2020/12/23 03:44:03;;;;;;;2.58;2.35;;;12.80;99.20;;;;;;6251067;28;20128;-78
2020/12/23 03:47:04;;;;;;;2.63;2.20;;;12.80;99.20;;;;;;6249297;28;20080;-78
2020/12/23 03:50:06;;;;;;;3.72;2.17;;;12.70;99.30;;;;;;6249800;28;20050;-78
2020/12/23 03:53:08;;;;;;;3.35;2.72;;;12.80;99.30;;;;;;6249490;28;20045;-78
2020/12/23 03:56:10;;;;;;;3.13;2.72;;;12.80;99.30;;;;;;6251001;28;20045;-78
2020/12/23 03:59:11;;;;;;;4.82;2.28;;;12.80;99.30;;;;;;6252687;28;20645;-78
2020/12/23 04:02:12;;;;;;;3.70;3.08;;;12.80;99.40;;;;;;6252668;28;20132;-78
2020/12/23 04:05:14;;;;;;;3.03;2.13;;;12.80;99.40;;;;;;6256291;28;20041;-78
2020/12/23 04:08:15;;;;;;;3.55;2.72;;;12.70;99.50;;;;;;6255720;28;20069;-78
2020/12/23 04:11:17;;;;;;;2.88;2.58;;;12.70;99.60;;;;;;6253438;28;20112;-78
2020/12/23 04:14:18;;;;;;;3.30;2.70;;;12.70;99.60;;;;;;6253828;28;20137;-78
2020/12/23 04:17:20;;;;;;;3.95;2.88;;;12.70;99.70;;;;;;6251902;28;20123;-78
2020/12/23 04:20:21;;;;;;;3.13;2.38;;;12.70;99.70;;;;;;6251343;28;20046;-78
2020/12/23 04:23:22;;;;;;;3.97;2.60;;;12.70;99.80;;;;;;6253186;28;20124;-78
2020/12/23 04:26:25;;;;;;;3.55;2.65;;;12.70;99.70;;;;;;6253436;28;20105;-78
2020/12/23 04:29:26;;;;;;;5.90;2.63;;;12.70;99.50;;;;;;6253901;28;20065;-78
2020/12/23 04:32:27;;;;;;;4.25;3.30;;;12.60;99.60;;;;;;6254534;28;20053;-78
2020/12/23 04:35:29;;;;;;;4.65;3.35;;;12.50;99.80;;;;;;6257836;28;20042;-78
2020/12/23 04:38:30;;;;;;;9.18;2.80;;;12.40;99.90;;;;;;6254475;28;20049;-78
2020/12/23 04:41:34;;;;;;;5.63;2.90;;;12.40;99.90;;;;;;6253900;28;20045;-77
2020/12/23 04:44:36;;;;;;;3.53;2.92;;;12.40;99.90;;;;;;6249194;28;20103;-76
2020/12/23 04:47:37;;;;;;;3.63;2.97;;;12.40;99.90;;;;;;6248732;28;20507;-77
2020/12/23 04:50:44;;;;;;;6.82;4.50;;;12.40;99.90;;;;;;6254155;28;20072;-78
2020/12/23 04:53:45;;;;;;;3.40;2.92;;;12.40;99.90;;;;;;6258900;28;20411;-76
2020/12/23 04:56:48;;;;;;;3.92;2.72;;;12.40;99.90;;;;;;6266486;28;20046;-79
2020/12/23 04:59:50;;;;;;;5.63;3.63;;;12.30;99.90;;;;;;6265229;28;20077;-79
2020/12/23 05:02:51;;;;;;;4.32;2.78;;;12.30;99.90;;;;;;6268969;28;20071;-79
2020/12/23 05:05:52;;;;;;;7.80;4.57;;;12.20;99.90;;;;;;6262265;28;20091;-78
2020/12/23 05:08:54;;;;;;;6.55;3.05;;;12.20;99.90;;;;;;6251742;28;20049;-79
2020/12/23 05:11:58;;;;;;;7.57;5.38;;;12.30;99.90;;;;;;6243876;28;20054;-78
2020/12/23 05:15:03;;;;;;;4.50;3.75;;;12.30;99.90;;;;;;6237340;28;20038;-75
2020/12/23 05:18:05;;;;;;;4.35;3.30;;;12.30;99.90;;;;;;6251589;28;20630;-77
2020/12/23 05:21:14;;;;;;;12.70;4.25;;;12.30;99.90;;;;;;6259982;28;20120;-77
2020/12/23 05:24:16;;;;;;;5.72;3.72;;;12.20;99.90;;;;;;6251905;28;20057;-80
2020/12/23 05:27:18;;;;;;;5.82;4.32;;;12.20;99.90;;;;;;6257167;28;20068;-76
2020/12/23 05:30:19;;;;;;;4.78;3.42;;;12.20;99.90;;;;;;6251568;28;20117;-78
2020/12/23 05:33:21;;;;;;;6.32;3.22;;;12.10;99.90;;;;;;6254679;28;20591;-78
2020/12/23 05:36:22;;;;;;;3.35;2.97;;;12.10;99.90;;;;;;6253193;28;20064;-79
2020/12/23 05:39:24;;;;;;;4.05;3.65;;;12.30;99.90;;;;;;6251435;28;20037;-77
2020/12/23 05:42:27;;;;;;;4.63;2.97;;;12.20;99.90;;;;;;6246254;28;20042;-77
2020/12/23 05:45:28;;;;;;;3.85;3.30;;;12.20;99.90;;;;;;6248778;28;20141;-78
2020/12/23 05:48:31;;;;;;;4.93;3.60;;;12.20;99.90;;;;;;6249392;28;20064;-76
2020/12/23 05:51:36;;;;;;;4.18;3.75;;;12.10;99.90;;;;;;6244676;28;20543;-76
2020/12/23 05:54:38;;;;;;;5.18;3.78;;;12.20;99.90;;;;;;6246089;28;20104;-77
2020/12/23 05:57:40;;;;;;;7.63;3.17;;;12.20;99.90;;;;;;6244857;28;20055;-77
2020/12/23 06:00:42;;;;;;;9.88;3.78;;;12.20;99.90;;;;;;6247310;28;20045;-76
2020/12/23 06:03:57;;;;;;;5.43;4.05;;;12.20;99.90;;;;;;6244459;28;20047;-77
2020/12/23 06:07:06;;;;;;;6.28;3.10;;;12.20;99.90;;;;;;6244888;28;20540;-77
2020/12/23 06:10:09;;;;;;;4.35;3.53;;;12.20;99.90;;;;;;6244828;28;20128;-77
2020/12/23 06:13:12;;;;;;;6.85;4.38;;;12.20;99.90;;;;;;6245351;28;20051;-77
2020/12/23 06:16:25;;;;;;;9.05;3.88;;;12.20;99.90;;;;;;6244317;28;20042;-77
2020/12/23 06:19:29;;;;;;;6.68;3.88;;;12.20;99.90;;;;;;6246444;28;20056;-78
2020/12/23 06:22:30;;;;;;;6.88;3.17;;;12.10;99.90;;;;;;6245423;28;20562;-77
2020/12/23 06:25:32;;;;;;;6.07;4.47;;;12.10;99.90;;;;;;6253232;28;20037;-79
2020/12/23 06:28:38;;;;;;;4.70;4.30;;;12.10;99.90;;;;;;6248262;28;20049;-78
2020/12/23 06:31:41;;;;;;;5.70;5.15;;;12.10;99.90;;;;;;6250066;28;20065;-78
2020/12/23 06:34:43;;;;;;;10.38;5.07;;;12.20;99.90;;;;;;6246532;28;20132;-77
2020/12/23 06:37:44;;;;;;;9.82;4.07;;;12.20;99.90;;;;;;6246904;28;20041;-78
2020/12/23 06:40:57;;;;;;;4.85;3.95;;;12.20;99.90;;;;;;6249061;28;20107;-79
2020/12/23 06:44:01;;;;;;;8.75;4.07;;;12.30;99.90;;;;;;6247789;28;20200;-77
2020/12/23 06:47:07;;;;;;;3.55;2.97;;;12.30;99.90;;;;;;6249038;28;20045;-78
2020/12/23 06:50:31;;;;;;;7.85;3.50;;;12.30;99.90;;;;;;6246306;28;20052;-78
2020/12/23 06:53:36;;;;;;;8.10;4.53;;;12.40;99.90;;;;;;6244488;28;20037;-78
2020/12/23 06:56:44;;;;;;;4.32;3.90;;;12.30;99.90;;;;;;6246661;28;20038;-78
2020/12/23 06:59:47;;;;;;;5.00;3.00;;;12.30;99.90;;;;;;6244091;28;20053;-78
2020/12/23 07:02:50;;;;;;;5.28;3.70;;;12.30;99.90;;;;;;6246754;28;20160;-79
2020/12/23 07:05:51;;;;;;;5.38;4.35;;;12.30;99.90;;;;;;6235040;28;20041;-78
2020/12/23 07:08:54;;;;;;;8.77;3.63;;;12.30;99.90;;;;;;6242663;28;20507;-78
2020/12/23 07:11:59;;;;;;;4.07;3.67;;;12.20;99.90;;;;;;6239385;28;20443;-78
2020/12/23 07:15:09;;;;;;;6.85;4.18;;;12.20;99.90;;;;;;6247370;28;20045;-78
2020/12/23 07:18:12;;;;;;;5.30;3.30;;;12.30;99.90;;;;;;6231233;28;20053;-78
2020/12/23 07:21:13;;;;;;;4.90;3.75;;;12.20;99.90;;;;;;6242518;28;20091;-78
2020/12/23 07:24:15;;;;;;;5.03;3.58;;;12.20;99.90;;;;;;6243987;28;20056;-78
2020/12/23 07:27:17;;;;;;;4.80;3.15;;;12.20;99.90;;;;;;6231873;28;20058;-78
2020/12/23 07:30:20;;;;;;;5.43;4.10;;;12.20;99.90;;;;;;6241279;28;20128;-78
2020/12/23 07:33:22;;;;;;;6.50;3.30;;;12.10;99.90;;;;;;6245034;28;20491;-77
2020/12/23 07:36:24;;;;;;;8.25;3.63;;;12.10;99.90;;;;;;6245360;28;20120;-78
2020/12/23 07:39:25;;;;;;;4.22;3.35;;;12.10;99.90;;;;;;6244097;28;20088;-78
2020/12/23 07:42:26;;;;;;;4.57;3.95;;;12.10;99.90;;;;;;6239401;28;20558;-78
2020/12/23 07:45:30;;;;;;;5.53;3.78;;;12.10;99.90;;;;;;6243838;28;20492;-78
2020/12/23 07:48:31;;;;;;;5.28;2.80;;;12.10;99.90;;;;;;6243537;28;20045;-78
2020/12/23 07:51:35;;;;;;;3.90;3.55;;;12.10;99.90;;;;;;6245410;28;20041;-78
2020/12/23 07:54:37;;;;;;;3.22;2.92;;;12.10;99.90;;;;;;6244085;28;20045;-78
2020/12/23 07:57:38;;;;;;;3.90;2.72;;;12.10;99.90;;;;;;6243484;28;20496;-78
2020/12/23 08:00:44;;;;;;;4.78;3.45;;;12.20;99.90;;;;;;6240964;28;20049;-78
2020/12/23 08:03:45;;;;;;;4.72;3.58;;;12.20;99.90;;;;;;6279852;23;20642;-79
2020/12/23 08:06:46;;;;;;;4.13;2.90;;;12.20;99.90;;;;;;6268669;28;20045;-80
2020/12/23 08:09:48;;;;;;;3.72;2.78;;;12.30;99.90;;;;;;6270997;28;20064;-80
2020/12/23 08:12:54;;;;;;;4.28;3.28;;;12.30;99.90;;;;;;6272316;28;20668;-81
2020/12/23 08:16:15;;;;;;;3.50;2.85;;;12.40;99.90;;;;;;6268091;28;20049;-81
2020/12/23 08:19:17;;;;;;;2.83;2.58;;;12.40;99.90;;;;;;6270465;28;20079;-78
2020/12/23 08:22:18;;;;;;;2.97;2.58;;;12.50;99.90;;;;;;6270556;28;20071;-80
2020/12/23 08:25:21;;;;;;;6.88;4.43;;;12.50;99.80;;;;;;6257702;28;20041;-80
2020/12/23 08:28:23;;;;;;;7.15;3.75;;;12.50;99.60;;;;;;6274390;28;20127;-78
2020/12/23 08:31:31;;;;;;;4.68;3.03;;;12.50;99.50;;;;;;6276880;28;20052;-81
2020/12/23 08:34:33;;;;;;;2.72;2.40;;;12.60;99.50;;;;;;6274108;28;20056;-82
2020/12/23 08:37:36;;;;;;;3.55;2.15;;;12.60;99.50;;;;;;6274037;28;20053;-81
2020/12/23 08:40:44;;;;;;;5.25;3.00;;;12.60;99.40;;;;;;6271624;28;20525;-79
2020/12/23 08:43:48;;;;;;;2.42;2.22;;;12.60;99.20;;;;;;6263575;28;20120;-78
2020/12/23 08:46:50;;;;;;;5.78;3.22;;;12.70;99.20;;;;;;6271216;28;20045;-77
2020/12/23 08:49:53;;;;;;;4.60;4.18;;;12.70;99.20;;;;;;6272550;28;20474;-77
2020/12/23 08:52:55;;;;;;;6.22;4.22;;;12.80;99.10;;;;;;6271019;28;20049;-77
2020/12/23 08:55:56;;;;;;;6.05;4.10;;;12.80;98.90;;;;;;6271484;28;20114;-79
2020/12/23 08:58:59;;;;;;;4.93;3.67;;;12.90;98.80;;;;;;6273335;28;20037;-79
2020/12/23 09:02:11;;;;;;;5.95;3.10;;;13.00;98.50;;;;;;6270636;28;20144;-78
2020/12/23 09:05:20;;;;;;;2.20;2.00;;;13.00;98.20;;;;;;6265945;28;20132;-78
2020/12/23 09:08:24;;;;;;;1.88;1.50;;;13.10;97.90;;;;;;6275844;28;20128;-78
2020/12/23 09:11:38;;;;;;;2.33;2.00;;;13.10;97.60;;;;;;6272494;28;20123;-78
2020/12/23 09:14:39;;;;;;;3.38;2.13;;;13.20;97.50;;;;;;6274514;28;20052;-79
2020/12/23 09:17:41;;;;;;;5.38;2.05;;;13.20;97.30;;;;;;6265983;28;20067;-78
2020/12/23 09:20:42;;;;;;;2.90;2.30;;;13.30;96.90;;;;;;6275394;28;20144;-79
2020/12/23 09:23:44;;;;;;;4.57;2.80;;;13.30;96.70;;;;;;6263701;28;20049;-80
2020/12/23 09:26:45;;;;;;;2.83;2.00;;;13.40;96.40;;;;;;6272741;28;20056;-79
2020/12/23 09:29:46;;;;;;;2.85;1.60;;;13.40;96.10;;;;;;6267009;28;20072;-79
2020/12/23 09:32:53;;;;;;;1.70;1.10;;;13.50;95.80;;;;;;6272232;28;20383;-80
2020/12/23 09:36:05;;;;;;;1.40;1.17;;;13.50;95.30;;;;;;6270555;28;20049;-80
2020/12/23 09:39:07;;;;;;;2.15;1.27;;;13.70;95.20;;;;;;6272026;28;20064;-79
2020/12/23 09:42:09;;;;;;;1.58;1.20;;;13.80;94.90;;;;;;6272236;28;20094;-80
2020/12/23 09:45:13;;;;;;;2.45;1.02;;;13.80;94.60;;;;;;6270126;28;20041;-78
2020/12/23 09:48:16;;;;;;;2.90;1.48;;;13.90;94.20;;;;;;6272264;28;20041;-80
2020/12/23 09:51:17;;;;;;;1.67;0.80;;;14.00;94.10;;;;;;6272973;28;20059;-78
2020/12/23 09:54:19;;;;;;;1.20;0.88;;;14.10;93.40;;;;;;6260316;28;20053;-80
2020/12/23 09:57:21;;;;;;;1.23;1.10;;;14.20;92.50;;;;;;6269524;28;20056;-80
2020/12/23 10:00:24;;;;;;;1.70;0.90;;;14.30;92.10;;;;;;6269968;28;20059;-80
2020/12/23 10:03:26;;;;;;;2.47;0.90;;;14.40;91.40;;;;;;6274350;28;20056;-78
2020/12/23 10:06:27;;;;;;;1.02;0.88;;;14.50;90.70;;;;;;6272550;28;20136;-79
2020/12/23 10:09:28;;;;;;;0.80;0.60;;;14.50;90.20;;;;;;6272569;28;20048;-79
2020/12/23 10:12:29;;;;;;;3.10;1.35;;;14.60;90.30;;;;;;6272668;28;20490;-79
2020/12/23 10:15:31;;;;;;;1.83;1.02;;;14.60;90.10;;;;;;6273008;28;20036;-81
2020/12/23 10:18:33;;;;;;;0.73;0.73;;;14.60;89.60;;;;;;6274938;28;20083;-78
2020/12/23 10:21:34;;;;;;;1.67;0.90;;;14.70;89.60;;;;;;6274981;28;20037;-78
2020/12/23 10:24:36;;;;;;;0.80;0.73;;;14.70;89.20;;;;;;6271248;28;20095;-79
2020/12/23 10:27:37;;;;;;;1.20;0.60;;;14.80;88.00;;;;;;6269728;28;20091;-79
2020/12/23 10:30:39;;;;;;;1.30;0.80;;;14.90;88.10;;;;;;6273155;28;20174;-78
2020/12/23 10:33:41;;;;;;;2.03;1.10;;;15.00;87.30;;;;;;6264041;28;20124;-78
2020/12/23 10:36:43;;;;;;;1.30;0.93;;;15.10;87.30;;;;;;6264354;28;20778;-78
2020/12/23 10:39:44;;;;;;;2.17;0.60;;;15.10;85.80;;;;;;6269226;28;20074;-78
2020/12/23 10:42:47;;;;;;;1.33;1.17;;;15.20;84.80;;;;;;6267537;28;20049;-78
2020/12/23 10:45:49;;;;;;;1.52;0.80;;;15.30;83.80;;;;;;6270439;28;20056;-77
2020/12/23 10:48:51;;;;;;;1.17;0.90;;;15.30;83.00;;;;;;6273336;28;20132;-79
2020/12/23 10:51:54;;;;;;;0.60;0.60;;;15.40;82.10;;;;;;6271422;28;20102;-78
2020/12/23 10:54:55;;;;;;;2.92;2.13;;;15.50;81.70;;;;;;6271139;28;20045;-79
2020/12/23 10:57:57;;;;;;;2.83;0.55;;;15.50;80.20;;;;;;6266483;28;20044;-78
2020/12/23 11:00:58;;;;;;;1.00;0.50;;;15.70;79.70;;;;;;6266174;28;20080;-78
2020/12/23 11:04:00;;;;;;;1.90;0.75;;;15.80;79.50;;;;;;6270971;28;20115;-79
2020/12/23 11:07:02;;;;;;;2.17;0.63;;;15.80;78.50;;;;;;6267815;28;20041;-78
2020/12/23 11:10:03;;;;;;;0.93;0.55;;;15.90;77.80;;;;;;6268209;28;20557;-77
2020/12/23 11:13:05;;;;;;;0.82;0.68;;;15.90;77.80;;;;;;6276248;28;20097;-78
2020/12/23 11:16:06;;;;;;;1.20;0.82;;;16.00;78.20;;;;;;6276839;28;20156;-78
2020/12/23 11:19:08;;;;;;;0.82;0.82;;;16.00;78.30;;;;;;6276436;28;20608;-77
2020/12/23 11:22:10;;;;;;;1.80;1.00;;;15.90;78.70;;;;;;6274305;28;20125;-77
2020/12/23 11:25:11;;;;;;;0.98;0.60;;;15.90;79.80;;;;;;6273259;28;20091;-78
2020/12/23 11:28:12;;;;;;;0.70;0.70;;;15.80;82.10;;;;;;6271889;28;20081;-79
2020/12/23 11:31:15;;;;;;;0.90;0.65;;;15.60;82.70;;;;;;6275526;28;20049;-79
2020/12/23 11:34:17;;;;;;;0.50;0.50;;;15.50;83.30;;;;;;6276727;28;20132;-78
2020/12/23 11:37:18;;;;;;;1.40;0.98;;;15.50;83.80;;;;;;6274566;28;20064;-78
2020/12/23 11:40:20;;;;;;;0.75;0.70;;;15.30;84.50;;;;;;6271117;28;20152;-78
2020/12/23 11:43:21;;;;;;;2.63;1.00;;;15.30;85.90;;;;;;6263770;28;20722;-77
2020/12/23 11:46:22;;;;;;;2.40;1.23;;;15.20;86.40;;;;;;6258675;28;20521;-78
2020/12/23 11:49:24;;;;;;;1.60;1.25;;;15.10;87.50;;;;;;6269877;28;20438;-77
2020/12/23 11:52:26;;;;;;;1.65;1.10;;;15.00;88.00;;;;;;6262496;28;20084;-78
2020/12/23 11:55:27;;;;;;;1.55;1.33;;;14.90;87.90;;;;;;6270306;28;20545;-77
2020/12/23 11:58:29;;;;;;;1.75;0.88;;;14.90;88.50;;;;;;6250119;28;20045;-78
2020/12/23 12:01:30;;;;;;;1.10;0.90;;;15.00;88.90;;;;;;6264824;28;20052;-77
2020/12/23 12:04:32;;;;;;;1.20;1.10;;;15.00;88.40;;;;;;6266234;28;20041;-78
2020/12/23 12:07:33;;;;;;;0.90;0.68;;;15.00;88.20;;;;;;6262985;28;20092;-78
2020/12/23 12:10:35;;;;;;;3.85;0.90;;;14.90;88.30;;;;;;6258132;28;20049;-78
2020/12/23 12:13:36;;;;;;;1.10;0.93;;;14.90;88.40;;;;;;6266601;28;20125;-78
2020/12/23 12:16:37;;;;;;;0.80;0.80;;;14.90;88.40;;;;;;6271679;28;20490;-78
2020/12/23 12:19:39;;;;;;;3.67;1.10;;;14.90;87.40;;;;;;6267471;28;20403;-77
2020/12/23 12:22:41;;;;;;;0.77;0.60;;;15.00;87.00;;;;;;6263090;28;20055;-78
2020/12/23 12:25:42;;;;;;;3.35;1.02;;;15.10;87.10;;;;;;6268251;28;20090;-78
2020/12/23 12:28:43;;;;;;;1.70;0.82;;;15.10;87.40;;;;;;6258360;28;20396;-78
2020/12/23 12:31:45;;;;;;;0.88;0.70;;;15.10;87.80;;;;;;6267429;28;20081;-78
2020/12/23 12:34:48;;;;;;;3.65;1.58;;;15.20;87.90;;;;;;6267698;28;20045;-78
2020/12/23 12:37:49;;;;;;;1.75;1.10;;;15.30;88.10;;;;;;6246681;28;20095;-78
2020/12/23 12:40:50;;;;;;;2.65;0.95;;;15.40;87.90;;;;;;6262838;28;20049;-78
2020/12/23 12:43:52;;;;;;;1.48;1.27;;;15.40;88.80;;;;;;6258689;28;20091;-77
2020/12/23 12:46:53;;;;;;;2.70;1.77;;;15.30;88.50;;;;;;6263240;28;20076;-79
2020/12/23 12:49:55;;;;;;;1.52;1.15;;;15.30;88.30;;;;;;6267121;28;20054;-79
2020/12/23 12:52:56;;;;;;;2.10;1.40;;;15.20;88.70;;;;;;6265496;28;20053;-80
2020/12/23 12:55:58;;;;;;;1.23;1.08;;;15.10;89.20;;;;;;6273500;28;20045;-80
2020/12/23 12:59:00;;;;;;;2.95;1.17;;;15.00;89.90;;;;;;6260170;28;20053;-78
2020/12/23 13:02:01;;;;;;;36.72;30.73;;;15.00;89.90;;;;;;6264600;28;20456;-78
2020/12/23 13:05:04;;;;;;;4.65;1.30;;;15.00;89.40;;;;;;6269000;28;20545;-79
2020/12/23 13:08:05;;;;;;;5.38;2.08;;;14.90;89.30;;;;;;6273327;28;20132;-78
2020/12/23 13:11:06;;;;;;;3.35;1.52;;;14.90;88.80;;;;;;6269274;28;20058;-78
2020/12/23 13:14:08;;;;;;;4.60;4.13;;;14.80;88.80;;;;;;6267436;28;20079;-79
2020/12/23 13:17:09;;;;;;;5.63;3.97;;;14.70;89.30;;;;;;6264056;28;20073;-79
2020/12/23 13:20:11;;;;;;;4.25;2.08;;;14.70;90.80;;;;;;6266865;28;20112;-79
2020/12/23 13:23:13;;;;;;;2.15;1.88;;;14.70;90.50;;;;;;6271010;28;20414;-80
2020/12/23 13:26:15;;;;;;;3.28;1.80;;;14.80;91.50;;;;;;6270835;28;20034;-80
2020/12/23 13:29:16;;;;;;;6.30;2.88;;;14.90;90.20;;;;;;6269699;28;20061;-79
2020/12/23 13:32:17;;;;;;;5.28;2.08;;;14.80;90.40;;;;;;6271674;28;20065;-79
2020/12/23 13:35:20;;;;;;;4.55;1.70;;;14.70;90.30;;;;;;6269763;28;20130;-80
2020/12/23 13:38:22;;;;;;;4.13;2.15;;;14.70;90.00;;;;;;6271374;28;20149;-80
2020/12/23 13:41:23;;;;;;;2.90;1.35;;;14.60;90.30;;;;;;6265059;28;20109;-81
2020/12/23 13:44:24;;;;;;;5.32;1.70;;;14.50;90.20;;;;;;6256958;28;20041;-79
2020/12/23 13:47:26;;;;;;;2.90;2.00;;;14.40;90.70;;;;;;6265486;28;20124;-79
2020/12/23 13:50:28;;;;;;;2.08;1.88;;;14.40;90.70;;;;;;6266932;28;20072;-79
2020/12/23 13:53:29;;;;;;;5.00;1.50;;;14.30;90.60;;;;;;6267079;28;20049;-79
2020/12/23 13:56:30;;;;;;;2.28;1.80;;;14.20;91.20;;;;;;6262634;28;20071;-79
2020/12/23 13:59:32;;;;;;;2.20;1.95;;;14.10;91.40;;;;;;6260876;28;20056;-78
2020/12/23 14:02:35;;;;;;;3.22;1.77;;;14.00;91.60;;;;;;6259482;28;20493;-78
2020/12/23 14:05:37;;;;;;;2.47;1.48;;;13.90;91.90;;;;;;6266551;28;20157;-80
2020/12/23 14:08:40;;;;;;;2.10;1.50;;;13.80;92.30;;;;;;6262475;28;20049;-80
2020/12/23 14:11:42;;;;;;;1.98;1.52;;;13.70;92.60;;;;;;6273102;28;20059;-80
2020/12/23 14:14:43;;;;;;;1.52;1.00;;;13.70;92.90;;;;;;6265674;28;20053;-81
2020/12/23 14:17:44;;;;;;;2.10;1.25;;;13.60;92.80;;;;;;6270336;28;20073;-81
2020/12/23 14:20:47;;;;;;;1.92;1.38;;;13.60;92.70;;;;;;6268089;28;20049;-80
2020/12/23 14:23:48;;;;;;;1.75;0.93;;;13.60;92.80;;;;;;6271179;28;20112;-81
2020/12/23 14:26:50;;;;;;;1.63;1.50;;;13.60;92.70;;;;;;6268247;28;20162;-80
2020/12/23 14:29:51;;;;;;;2.17;1.70;;;13.60;92.90;;;;;;6273483;28;20040;-81
2020/12/23 14:32:52;;;;;;;1.67;0.90;;;13.60;93.10;;;;;;6266339;28;20068;-81
2020/12/23 14:35:55;;;;;;;3.00;1.60;;;13.60;93.20;;;;;;6269207;28;20602;-81
2020/12/23 14:38:56;;;;;;;1.10;0.95;;;13.50;93.20;;;;;;6268298;28;20041;-81
2020/12/23 14:41:57;;;;;;;1.52;0.93;;;13.50;93.30;;;;;;6264705;28;20065;-81
2020/12/23 14:44:58;;;;;;;1.20;0.95;;;13.60;93.00;;;;;;6270321;28;20053;-80
2020/12/23 14:48:00;;;;;;;1.55;0.70;;;13.60;93.00;;;;;;6269520;28;20041;-82
2020/12/23 14:51:02;;;;;;;1.25;0.90;;;13.60;92.80;;;;;;6266264;28;20041;-81
2020/12/23 14:54:03;;;;;;;4.10;3.15;;;13.60;92.80;;;;;;6267051;28;20041;-81
2020/12/23 14:57:05;;;;;;;0.52;0.52;;;13.70;92.50;;;;;;6263905;28;20099;-81
2020/12/23 15:00:08;;;;;;;1.20;0.82;;;13.70;92.00;;;;;;6267087;28;20076;-81
2020/12/23 15:03:09;;;;;;;1.02;1.00;;;13.80;91.40;;;;;;6267088;28;20057;-80
2020/12/23 15:06:14;;;;;;;3.90;3.53;;;13.90;91.50;;;;;;6270114;28;20060;-81
2020/12/23 15:09:16;;;;;;;1.70;0.57;;;13.90;91.70;;;;;;6267233;28;20109;-82
2020/12/23 15:12:17;;;;;;;3.92;2.22;;;13.90;91.60;;;;;;6264561;28;20088;-81
2020/12/23 15:15:19;;;;;;;18.13;16.60;;;13.80;92.10;;;;;;6265955;28;20044;-81
2020/12/23 15:18:22;;;;;;;1.83;1.25;;;13.80;92.70;;;;;;6270054;28;20183;-81
2020/12/23 15:21:24;;;;;;;6.88;3.33;;;13.70;93.30;;;;;;6267734;28;20545;-81
2020/12/23 15:24:26;;;;;;;1.95;1.30;;;13.40;94.10;;;;;;6264465;28;20137;-81
2020/12/23 15:27:27;;;;;;;2.30;1.10;;;13.40;94.50;;;;;;6256034;28;20049;-81
2020/12/23 15:30:28;;;;;;;1.05;0.95;;;13.30;95.00;;;;;;6269064;28;20271;-81
2020/12/23 15:33:30;;;;;;;1.48;1.20;;;13.20;95.60;;;;;;6265768;28;20125;-81
2020/12/23 15:36:32;;;;;;;1.33;1.23;;;13.20;96.00;;;;;;6261381;28;20109;-81
2020/12/23 15:39:33;;;;;;;1.80;1.15;;;13.10;96.40;;;;;;6259633;28;20521;-81
2020/12/23 15:42:34;;;;;;;3.13;2.05;;;13.00;97.00;;;;;;6267732;28;20080;-82
2020/12/23 15:45:36;;;;;;;1.95;1.75;;;12.90;97.50;;;;;;6260619;28;20558;-81
2020/12/23 15:48:37;;;;;;;2.45;2.25;;;12.90;97.70;;;;;;6268084;28;20411;-80